sensor_id;sensor_type;location;lat;lon;timestamp;pressure;altitude;pressure_sealevel;temperature;humidity
43450;BME280;29041;42.266;23.110;2024-01-15T00:00:14;95376.25;;;-4.63;100.00
43450;BME280;29041;42.266;23.110;2024-01-15T00:03:04;95377.97;;;-4.68;100.00
43450;BME280;29041;42.266;23.110;2024-01-15T00:05:51;95386.34;;;-4.54;100.00
43450;BME280;29041;42.266;23.110;2024-01-15T00:08:38;95381.38;;;-4.68;100.00
43450;BME280;29041;42.266;23.110;2024-01-15T00:11:26;95368.72;;;-4.59;100.00
43450;BME280;29041;42.266;23.110;2024-01-15T00:14:13;95375.34;;;-4.68;100.00
43450;BME280;29041;42.266;23.110;2024-01-15T00:17:05;95308.91;;;-5.08;100.00
43450;BME280;29041;42.266;23.110;2024-01-15T00:19:56;95362.56;;;-4.65;100.00
43450;BME280;29041;42.266;23.110;2024-01-15T00:22:43;95367.91;;;-4.42;100.00
43450;BME280;29041;42.266;23.110;2024-01-15T00:25:30;95365.84;;;-4.57;100.00
43450;BME280;29041;42.266;23.110;2024-01-15T00:28:17;95327.00;;;-4.60;100.00
43450;BME280;29041;42.266;23.110;2024-01-15T00:31:05;95381.25;;;-4.61;100.00
43450;BME280;29041;42.266;23.110;2024-01-15T00:33:52;95356.16;;;-4.86;100.00
43450;BME280;29041;42.266;23.110;2024-01-15T00:36:42;95372.47;;;-4.96;100.00
43450;BME280;29041;42.266;23.110;2024-01-15T00:39:29;95374.84;;;-4.94;100.00
43450;BME280;29041;42.266;23.110;2024-01-15T00:42:16;95367.44;;;-4.85;100.00
43450;BME280;29041;42.266;23.110;2024-01-15T00:45:04;95373.22;;;-4.83;100.00
43450;BME280;29041;42.266;23.110;2024-01-15T00:47:53;95370.31;;;-4.99;100.00
43450;BME280;29041;42.266;23.110;2024-01-15T00:50:42;95378.63;;;-4.90;100.00
43450;BME280;29041;42.266;23.110;2024-01-15T00:53:30;95374.06;;;-4.95;100.00
43450;BME280;29041;42.266;23.110;2024-01-15T00:56:17;95382.97;;;-4.96;100.00
43450;BME280;29041;42.266;23.110;2024-01-15T00:59:04;95374.31;;;-4.96;100.00
43450;BME280;29041;42.266;23.110;2024-01-15T01:01:52;95379.44;;;-5.01;100.00
43450;BME280;29041;42.266;23.110;2024-01-15T01:04:40;95358.41;;;-5.06;100.00
43450;BME280;29041;42.266;23.110;2024-01-15T01:07:27;95374.44;;;-5.03;100.00
43450;BME280;29041;42.266;23.110;2024-01-15T01:10:15;95366.63;;;-5.15;100.00
43450;BME280;29041;42.266;23.110;2024-01-15T01:13:03;95363.97;;;-5.03;100.00
43450;BME280;29041;42.266;23.110;2024-01-15T01:15:50;95346.09;;;-5.06;100.00
43450;BME280;29041;42.266;23.110;2024-01-15T01:18:37;95368.94;;;-4.89;100.00
43450;BME280;29041;42.266;23.110;2024-01-15T01:21:24;95350.28;;;-4.93;100.00
43450;BME280;29041;42.266;23.110;2024-01-15T01:24:11;95364.41;;;-5.06;100.00
43450;BME280;29041;42.266;23.110;2024-01-15T01:27:00;95350.81;;;-5.20;100.00
43450;BME280;29041;42.266;23.110;2024-01-15T01:29:48;95377.63;;;-5.01;100.00
43450;BME280;29041;42.266;23.110;2024-01-15T01:32:35;95370.66;;;-4.95;100.00
43450;BME280;29041;42.266;23.110;2024-01-15T01:35:22;95371.59;;;-4.72;100.00
43450;BME280;29041;42.266;23.110;2024-01-15T01:38:10;95364.03;;;-4.86;100.00
43450;BME280;29041;42.266;23.110;2024-01-15T01:40:57;95342.59;;;-5.12;100.00
43450;BME280;29041;42.266;23.110;2024-01-15T01:43:46;95345.34;;;-5.18;100.00
43450;BME280;29041;42.266;23.110;2024-01-15T01:46:34;95333.66;;;-4.99;100.00
43450;BME280;29041;42.266;23.110;2024-01-15T01:49:26;95338.56;;;-5.02;100.00
43450;BME280;29041;42.266;23.110;2024-01-15T01:52:13;95319.19;;;-5.30;100.00
43450;BME280;29041;42.266;23.110;2024-01-15T01:55:03;95358.06;;;-5.10;100.00
43450;BME280;29041;42.266;23.110;2024-01-15T01:57:52;95350.91;;;-5.15;100.00
43450;BME280;29041;42.266;23.110;2024-01-15T02:00:42;95335.69;;;-5.18;100.00
43450;BME280;29041;42.266;23.110;2024-01-15T02:03:31;95327.19;;;-5.25;100.00
43450;BME280;29041;42.266;23.110;2024-01-15T02:06:19;95327.00;;;-5.06;100.00
43450;BME280;29041;42.266;23.110;2024-01-15T02:09:07;95319.84;;;-5.11;100.00
43450;BME280;29041;42.266;23.110;2024-01-15T02:11:55;95300.56;;;-5.34;100.00
43450;BME280;29041;42.266;23.110;2024-01-15T02:14:42;95285.69;;;-5.45;100.00
43450;BME280;29041;42.266;23.110;2024-01-15T02:17:31;95294.22;;;-5.38;100.00
43450;BME280;29041;42.266;23.110;2024-01-15T02:20:18;95284.28;;;-5.36;100.00
43450;BME280;29041;42.266;23.110;2024-01-15T02:23:10;95268.69;;;-5.02;100.00
43450;BME280;29041;42.266;23.110;2024-01-15T02:25:57;95268.19;;;-5.16;100.00
43450;BME280;29041;42.266;23.110;2024-01-15T02:28:45;95273.78;;;-4.95;100.00
43450;BME280;29041;42.266;23.110;2024-01-15T02:31:32;95272.22;;;-4.62;100.00
43450;BME280;29041;42.266;23.110;2024-01-15T02:34:19;95282.22;;;-4.76;100.00
43450;BME280;29041;42.266;23.110;2024-01-15T02:37:08;95278.44;;;-4.51;100.00
43450;BME280;29041;42.266;23.110;2024-01-15T02:39:56;95274.47;;;-4.71;100.00
43450;BME280;29041;42.266;23.110;2024-01-15T02:42:43;95250.09;;;-5.17;100.00
43450;BME280;29041;42.266;23.110;2024-01-15T02:45:31;95268.78;;;-5.26;100.00
43450;BME280;29041;42.266;23.110;2024-01-15T02:48:18;95253.84;;;-5.54;100.00
43450;BME280;29041;42.266;23.110;2024-01-15T02:51:05;95258.97;;;-5.47;100.00
43450;BME280;29041;42.266;23.110;2024-01-15T02:53:53;95244.22;;;-5.53;100.00
43450;BME280;29041;42.266;23.110;2024-01-15T02:56:42;95248.84;;;-5.44;100.00
43450;BME280;29041;42.266;23.110;2024-01-15T02:59:29;95248.72;;;-5.37;100.00
43450;BME280;29041;42.266;23.110;2024-01-15T03:02:17;95241.72;;;-5.31;100.00
43450;BME280;29041;42.266;23.110;2024-01-15T03:05:06;95229.66;;;-5.32;100.00
43450;BME280;29041;42.266;23.110;2024-01-15T03:07:54;95231.47;;;-5.04;100.00
43450;BME280;29041;42.266;23.110;2024-01-15T03:10:44;95236.50;;;-5.31;100.00
43450;BME280;29041;42.266;23.110;2024-01-15T03:13:40;95235.25;;;-5.29;100.00
43450;BME280;29041;42.266;23.110;2024-01-15T03:16:27;95233.78;;;-5.36;100.00
43450;BME280;29041;42.266;23.110;2024-01-15T03:19:15;95247.72;;;-5.48;100.00
43450;BME280;29041;42.266;23.110;2024-01-15T03:22:04;95253.66;;;-5.52;100.00
43450;BME280;29041;42.266;23.110;2024-01-15T03:24:54;95238.06;;;-5.59;100.00
43450;BME280;29041;42.266;23.110;2024-01-15T03:27:41;95219.34;;;-5.39;100.00
43450;BME280;29041;42.266;23.110;2024-01-15T03:30:29;95216.91;;;-5.00;100.00
43450;BME280;29041;42.266;23.110;2024-01-15T03:33:17;95223.16;;;-5.18;100.00
43450;BME280;29041;42.266;23.110;2024-01-15T03:36:04;95228.97;;;-5.57;100.00
43450;BME280;29041;42.266;23.110;2024-01-15T03:38:52;95188.78;;;-5.79;100.00
43450;BME280;29041;42.266;23.110;2024-01-15T03:41:49;95222.34;;;-5.47;100.00
43450;BME280;29041;42.266;23.110;2024-01-15T03:44:36;95235.81;;;-6.08;100.00
43450;BME280;29041;42.266;23.110;2024-01-15T03:47:26;95209.44;;;-6.07;100.00
43450;BME280;29041;42.266;23.110;2024-01-15T03:50:13;95219.72;;;-5.01;100.00
43450;BME280;29041;42.266;23.110;2024-01-15T03:53:06;95235.22;;;-5.00;100.00
43450;BME280;29041;42.266;23.110;2024-01-15T03:55:53;95223.28;;;-5.24;100.00
43450;BME280;29041;42.266;23.110;2024-01-15T03:58:40;95231.50;;;-5.33;100.00
43450;BME280;29041;42.266;23.110;2024-01-15T04:01:27;95237.75;;;-5.63;100.00
43450;BME280;29041;42.266;23.110;2024-01-15T04:04:16;95218.94;;;-5.19;100.00
43450;BME280;29041;42.266;23.110;2024-01-15T04:07:05;95233.56;;;-5.35;100.00
43450;BME280;29041;42.266;23.110;2024-01-15T04:09:52;95219.97;;;-5.49;100.00
43450;BME280;29041;42.266;23.110;2024-01-15T04:12:39;95197.69;;;-5.51;100.00
43450;BME280;29041;42.266;23.110;2024-01-15T04:15:26;95186.75;;;-5.48;100.00
43450;BME280;29041;42.266;23.110;2024-01-15T04:18:15;95194.34;;;-5.18;100.00
43450;BME280;29041;42.266;23.110;2024-01-15T04:21:07;95187.22;;;-5.51;100.00
43450;BME280;29041;42.266;23.110;2024-01-15T04:23:54;95175.28;;;-5.30;100.00
43450;BME280;29041;42.266;23.110;2024-01-15T04:26:41;95184.97;;;-5.60;100.00
43450;BME280;29041;42.266;23.110;2024-01-15T04:29:28;95171.03;;;-5.48;100.00
43450;BME280;29041;42.266;23.110;2024-01-15T04:32:15;95175.44;;;-5.37;100.00
43450;BME280;29041;42.266;23.110;2024-01-15T04:35:03;95170.03;;;-5.47;100.00
43450;BME280;29041;42.266;23.110;2024-01-15T04:37:52;95187.78;;;-5.32;100.00
43450;BME280;29041;42.266;23.110;2024-01-15T04:40:39;95181.75;;;-5.50;100.00
43450;BME280;29041;42.266;23.110;2024-01-15T04:43:26;95198.63;;;-5.29;100.00
43450;BME280;29041;42.266;23.110;2024-01-15T04:46:13;95187.63;;;-5.43;100.00
43450;BME280;29041;42.266;23.110;2024-01-15T04:49:00;95200.16;;;-4.82;100.00
43450;BME280;29041;42.266;23.110;2024-01-15T04:51:48;95187.00;;;-5.33;100.00
43450;BME280;29041;42.266;23.110;2024-01-15T04:54:36;95189.25;;;-5.82;100.00
43450;BME280;29041;42.266;23.110;2024-01-15T04:57:23;95202.59;;;-5.96;100.00
43450;BME280;29041;42.266;23.110;2024-01-15T05:00:11;95190.88;;;-5.93;100.00
43450;BME280;29041;42.266;23.110;2024-01-15T05:02:59;95192.81;;;-5.60;100.00
43450;BME280;29041;42.266;23.110;2024-01-15T05:05:46;95194.25;;;-5.81;100.00
43450;BME280;29041;42.266;23.110;2024-01-15T05:08:33;95193.66;;;-6.00;100.00
43450;BME280;29041;42.266;23.110;2024-01-15T05:11:22;95196.81;;;-5.98;100.00
43450;BME280;29041;42.266;23.110;2024-01-15T05:14:09;95201.13;;;-5.63;100.00
43450;BME280;29041;42.266;23.110;2024-01-15T05:16:57;95201.97;;;-5.74;100.00
43450;BME280;29041;42.266;23.110;2024-01-15T05:19:44;95205.00;;;-5.65;100.00
43450;BME280;29041;42.266;23.110;2024-01-15T05:22:31;95193.56;;;-6.05;100.00
43450;BME280;29041;42.266;23.110;2024-01-15T05:25:18;95175.59;;;-6.01;100.00
43450;BME280;29041;42.266;23.110;2024-01-15T05:28:08;95176.31;;;-5.89;100.00
43450;BME280;29041;42.266;23.110;2024-01-15T05:30:55;95167.72;;;-5.44;100.00
43450;BME280;29041;42.266;23.110;2024-01-15T05:33:42;95168.97;;;-5.63;100.00
43450;BME280;29041;42.266;23.110;2024-01-15T05:36:29;95175.75;;;-5.91;100.00
43450;BME280;29041;42.266;23.110;2024-01-15T05:39:16;95172.59;;;-5.93;100.00
43450;BME280;29041;42.266;23.110;2024-01-15T05:42:04;95159.03;;;-5.90;100.00
43450;BME280;29041;42.266;23.110;2024-01-15T05:44:53;95188.34;;;-5.76;100.00
43450;BME280;29041;42.266;23.110;2024-01-15T05:47:40;95157.47;;;-5.62;100.00
43450;BME280;29041;42.266;23.110;2024-01-15T05:50:27;95139.38;;;-5.01;100.00
43450;BME280;29041;42.266;23.110;2024-01-15T05:53:14;95162.94;;;-5.47;100.00
43450;BME280;29041;42.266;23.110;2024-01-15T05:56:01;95157.81;;;-5.59;100.00
43450;BME280;29041;42.266;23.110;2024-01-15T05:58:48;95131.59;;;-4.96;100.00
43450;BME280;29041;42.266;23.110;2024-01-15T06:01:37;95134.28;;;-5.24;100.00
43450;BME280;29041;42.266;23.110;2024-01-15T06:04:24;95137.31;;;-5.33;100.00
43450;BME280;29041;42.266;23.110;2024-01-15T06:07:11;95141.75;;;-5.33;100.00
43450;BME280;29041;42.266;23.110;2024-01-15T06:09:59;95134.69;;;-4.99;100.00
43450;BME280;29041;42.266;23.110;2024-01-15T06:12:46;95146.28;;;-5.29;100.00
43450;BME280;29041;42.266;23.110;2024-01-15T06:15:33;95152.91;;;-5.38;100.00
43450;BME280;29041;42.266;23.110;2024-01-15T06:18:21;95159.59;;;-5.59;100.00
43450;BME280;29041;42.266;23.110;2024-01-15T06:21:09;95150.66;;;-5.63;100.00
43450;BME280;29041;42.266;23.110;2024-01-15T06:23:58;95154.03;;;-5.34;100.00
43450;BME280;29041;42.266;23.110;2024-01-15T06:26:46;95156.34;;;-5.66;100.00
43450;BME280;29041;42.266;23.110;2024-01-15T06:29:33;95150.03;;;-5.53;100.00
43450;BME280;29041;42.266;23.110;2024-01-15T06:32:20;95142.97;;;-5.82;100.00
43450;BME280;29041;42.266;23.110;2024-01-15T06:35:09;95135.16;;;-5.36;100.00
43450;BME280;29041;42.266;23.110;2024-01-15T06:37:57;95133.34;;;-5.18;100.00
43450;BME280;29041;42.266;23.110;2024-01-15T06:40:44;95158.53;;;-5.46;100.00
43450;BME280;29041;42.266;23.110;2024-01-15T06:43:33;95157.22;;;-5.32;100.00
43450;BME280;29041;42.266;23.110;2024-01-15T06:46:21;95166.41;;;-5.29;100.00
43450;BME280;29041;42.266;23.110;2024-01-15T06:49:08;95140.72;;;-5.15;100.00
43450;BME280;29041;42.266;23.110;2024-01-15T06:51:57;95156.91;;;-4.67;100.00
43450;BME280;29041;42.266;23.110;2024-01-15T06:54:44;95159.94;;;-4.92;100.00
43450;BME280;29041;42.266;23.110;2024-01-15T06:57:32;95125.25;;;-4.83;100.00
43450;BME280;29041;42.266;23.110;2024-01-15T07:00:19;95149.00;;;-4.11;98.32
43450;BME280;29041;42.266;23.110;2024-01-15T07:03:06;95142.25;;;-4.46;99.33
43450;BME280;29041;42.266;23.110;2024-01-15T07:05:53;95137.97;;;-4.52;99.99
43450;BME280;29041;42.266;23.110;2024-01-15T07:08:42;95131.72;;;-4.51;100.00
43450;BME280;29041;42.266;23.110;2024-01-15T07:11:29;95131.06;;;-4.19;100.00
43450;BME280;29041;42.266;23.110;2024-01-15T07:14:16;95121.31;;;-3.52;97.27
43450;BME280;29041;42.266;23.110;2024-01-15T07:17:04;95111.88;;;-3.21;95.88
43450;BME280;29041;42.266;23.110;2024-01-15T07:19:51;95114.25;;;-2.38;88.11
43450;BME280;29041;42.266;23.110;2024-01-15T07:22:38;95132.16;;;-2.30;89.68
43450;BME280;29041;42.266;23.110;2024-01-15T07:25:26;95134.06;;;-1.36;83.66
43450;BME280;29041;42.266;23.110;2024-01-15T07:28:14;95123.03;;;-2.12;85.90
43450;BME280;29041;42.266;23.110;2024-01-15T07:31:01;95142.34;;;-2.82;87.52
43450;BME280;29041;42.266;23.110;2024-01-15T07:33:49;95136.41;;;-3.37;91.13
43450;BME280;29041;42.266;23.110;2024-01-15T07:36:36;95146.13;;;-3.38;92.54
43450;BME280;29041;42.266;23.110;2024-01-15T07:39:23;95135.03;;;-3.45;94.39
43450;BME280;29041;42.266;23.110;2024-01-15T07:42:17;95142.41;;;-3.69;97.39
43450;BME280;29041;42.266;23.110;2024-01-15T07:45:05;95134.53;;;-3.69;98.35
43450;BME280;29041;42.266;23.110;2024-01-15T07:47:52;95143.94;;;-3.46;98.13
43450;BME280;29041;42.266;23.110;2024-01-15T07:50:41;95150.78;;;-3.67;100.00
43450;BME280;29041;42.266;23.110;2024-01-15T07:53:28;95125.81;;;-2.82;96.41
43450;BME280;29041;42.266;23.110;2024-01-15T07:56:15;95142.75;;;-3.00;96.58
43450;BME280;29041;42.266;23.110;2024-01-15T07:59:04;95151.13;;;-3.04;96.47
43450;BME280;29041;42.266;23.110;2024-01-15T08:01:51;95165.25;;;-3.10;98.55
43450;BME280;29041;42.266;23.110;2024-01-15T08:04:38;95137.72;;;-3.35;98.46
43450;BME280;29041;42.266;23.110;2024-01-15T08:07:25;95118.88;;;-3.31;99.17
43450;BME280;29041;42.266;23.110;2024-01-15T08:10:12;95155.25;;;-2.80;97.66
43450;BME280;29041;42.266;23.110;2024-01-15T08:13:00;95154.50;;;-3.08;97.76
43450;BME280;29041;42.266;23.110;2024-01-15T08:15:48;95152.03;;;-2.50;94.97
43450;BME280;29041;42.266;23.110;2024-01-15T08:18:36;95141.88;;;-2.36;94.52
43450;BME280;29041;42.266;23.110;2024-01-15T08:21:23;95135.69;;;-2.57;97.36
43450;BME280;29041;42.266;23.110;2024-01-15T08:24:14;95153.94;;;-2.40;97.74
43450;BME280;29041;42.266;23.110;2024-01-15T08:27:02;95130.50;;;-2.47;97.22
43450;BME280;29041;42.266;23.110;2024-01-15T08:29:50;95130.81;;;-1.80;95.08
43450;BME280;29041;42.266;23.110;2024-01-15T08:32:39;95126.09;;;-2.36;98.15
43450;BME280;29041;42.266;23.110;2024-01-15T08:35:28;95121.88;;;-1.68;94.03
43450;BME280;29041;42.266;23.110;2024-01-15T08:38:15;95109.31;;;-1.51;92.18
43450;BME280;29041;42.266;23.110;2024-01-15T08:41:02;95092.44;;;-1.60;92.59
43450;BME280;29041;42.266;23.110;2024-01-15T08:43:49;95103.25;;;-1.46;95.75
43450;BME280;29041;42.266;23.110;2024-01-15T08:46:38;95094.00;;;-1.54;93.71
43450;BME280;29041;42.266;23.110;2024-01-15T08:49:27;95107.75;;;-0.90;92.42
43450;BME280;29041;42.266;23.110;2024-01-15T08:52:14;95090.63;;;-1.03;91.60
43450;BME280;29041;42.266;23.110;2024-01-15T08:55:01;95102.19;;;-0.78;87.64
43450;BME280;29041;42.266;23.110;2024-01-15T08:57:50;95087.44;;;-1.00;91.32
43450;BME280;29041;42.266;23.110;2024-01-15T09:00:37;95094.59;;;-1.00;92.67
43450;BME280;29041;42.266;23.110;2024-01-15T09:03:24;95108.66;;;-0.08;87.06
43450;BME280;29041;42.266;23.110;2024-01-15T09:06:13;95092.47;;;-1.08;91.04
43450;BME280;29041;42.266;23.110;2024-01-15T09:09:01;95079.78;;;-0.65;88.05
43450;BME280;29041;42.266;23.110;2024-01-15T09:11:48;95086.91;;;-0.66;89.24
43450;BME280;29041;42.266;23.110;2024-01-15T09:14:35;95090.09;;;0.07;84.81
43450;BME280;29041;42.266;23.110;2024-01-15T09:17:22;95085.75;;;0.32;85.91
43450;BME280;29041;42.266;23.110;2024-01-15T09:20:15;95078.94;;;-0.45;88.87
43450;BME280;29041;42.266;23.110;2024-01-15T09:23:03;95072.72;;;0.86;85.64
43450;BME280;29041;42.266;23.110;2024-01-15T09:25:51;95058.94;;;0.14;87.19
43450;BME280;29041;42.266;23.110;2024-01-15T09:28:38;95050.94;;;0.25;89.17
43450;BME280;29041;42.266;23.110;2024-01-15T09:31:25;95033.91;;;0.46;86.40
43450;BME280;29041;42.266;23.110;2024-01-15T09:34:12;95020.50;;;-0.12;89.34
43450;BME280;29041;42.266;23.110;2024-01-15T09:36:59;95019.09;;;0.06;88.66
43450;BME280;29041;42.266;23.110;2024-01-15T09:39:48;95014.38;;;-0.03;88.18
43450;BME280;29041;42.266;23.110;2024-01-15T09:42:36;94999.53;;;0.52;88.88
43450;BME280;29041;42.266;23.110;2024-01-15T09:45:23;94998.22;;;0.09;87.70
43450;BME280;29041;42.266;23.110;2024-01-15T09:48:10;95005.22;;;0.99;85.47
43450;BME280;29041;42.266;23.110;2024-01-15T09:50:58;94983.94;;;0.50;84.07
43450;BME280;29041;42.266;23.110;2024-01-15T09:53:46;94987.53;;;0.65;82.71
43450;BME280;29041;42.266;23.110;2024-01-15T09:56:35;94983.19;;;1.08;79.18
43450;BME280;29041;42.266;23.110;2024-01-15T09:59:24;94989.09;;;1.49;76.16
43450;BME280;29041;42.266;23.110;2024-01-15T10:02:13;94982.34;;;1.37;77.78
43450;BME280;29041;42.266;23.110;2024-01-15T10:05:04;94989.06;;;1.73;76.02
43450;BME280;29041;42.266;23.110;2024-01-15T10:07:53;94960.88;;;2.20;74.00
43450;BME280;29041;42.266;23.110;2024-01-15T10:10:41;94954.41;;;2.46;72.56
43450;BME280;29041;42.266;23.110;2024-01-15T10:13:30;94935.69;;;3.03;73.41
43450;BME280;29041;42.266;23.110;2024-01-15T10:16:17;94931.50;;;2.69;74.02
43450;BME280;29041;42.266;23.110;2024-01-15T10:19:04;94905.88;;;3.62;69.66
43450;BME280;29041;42.266;23.110;2024-01-15T10:21:52;94904.09;;;4.31;68.77
43450;BME280;29041;42.266;23.110;2024-01-15T10:24:40;94907.84;;;4.07;68.52
43450;BME280;29041;42.266;23.110;2024-01-15T10:27:27;94904.56;;;4.10;66.72
43450;BME280;29041;42.266;23.110;2024-01-15T10:30:16;94884.59;;;4.35;66.88
43450;BME280;29041;42.266;23.110;2024-01-15T10:33:04;94893.41;;;3.62;67.87
43450;BME280;29041;42.266;23.110;2024-01-15T10:35:53;94887.66;;;3.05;70.66
43450;BME280;29041;42.266;23.110;2024-01-15T10:38:41;94883.44;;;3.04;70.79
43450;BME280;29041;42.266;23.110;2024-01-15T10:41:29;94879.63;;;3.74;69.53
43450;BME280;29041;42.266;23.110;2024-01-15T10:44:16;94874.25;;;3.88;68.10
43450;BME280;29041;42.266;23.110;2024-01-15T10:47:05;94868.50;;;3.72;68.49
43450;BME280;29041;42.266;23.110;2024-01-15T10:49:53;94855.63;;;3.29;69.51
43450;BME280;29041;42.266;23.110;2024-01-15T10:52:40;94857.09;;;2.65;72.21
43450;BME280;29041;42.266;23.110;2024-01-15T10:55:29;94854.16;;;3.59;70.03
43450;BME280;29041;42.266;23.110;2024-01-15T10:58:18;94855.16;;;2.85;69.78
43450;BME280;29041;42.266;23.110;2024-01-15T11:01:11;94843.56;;;2.81;71.16
43450;BME280;29041;42.266;23.110;2024-01-15T11:04:00;94826.75;;;2.99;71.36
43450;BME280;29041;42.266;23.110;2024-01-15T11:06:50;94813.59;;;3.08;71.58
43450;BME280;29041;42.266;23.110;2024-01-15T11:09:37;94797.09;;;3.11;72.12
43450;BME280;29041;42.266;23.110;2024-01-15T11:12:25;94815.56;;;3.53;71.01
43450;BME280;29041;42.266;23.110;2024-01-15T11:15:19;94809.13;;;3.31;71.25
43450;BME280;29041;42.266;23.110;2024-01-15T11:18:06;94814.19;;;3.05;71.63
43450;BME280;29041;42.266;23.110;2024-01-15T11:21:26;94790.75;;;2.43;75.63
43450;BME280;29041;42.266;23.110;2024-01-15T11:24:33;94787.47;;;2.04;78.56
43450;BME280;29041;42.266;23.110;2024-01-15T11:27:39;94770.31;;;4.04;71.99
43450;BME280;29041;42.266;23.110;2024-01-15T11:30:27;94772.06;;;3.63;72.23
43450;BME280;29041;42.266;23.110;2024-01-15T11:33:32;94760.38;;;3.64;72.10
43450;BME280;29041;42.266;23.110;2024-01-15T11:36:19;94759.00;;;3.07;73.44
43450;BME280;29041;42.266;23.110;2024-01-15T11:39:41;94751.25;;;3.33;73.05
43450;BME280;29041;42.266;23.110;2024-01-15T11:42:29;94752.41;;;3.64;71.87
43450;BME280;29041;42.266;23.110;2024-01-15T11:45:18;94737.84;;;3.53;71.79
43450;BME280;29041;42.266;23.110;2024-01-15T11:48:10;94731.00;;;3.83;71.80
43450;BME280;29041;42.266;23.110;2024-01-15T11:50:59;94747.69;;;3.84;70.98
43450;BME280;29041;42.266;23.110;2024-01-15T11:53:48;94730.38;;;3.86;70.16
43450;BME280;29041;42.266;23.110;2024-01-15T11:56:40;94722.72;;;3.85;69.83
43450;BME280;29041;42.266;23.110;2024-01-15T11:59:27;94725.53;;;3.88;69.35
43450;BME280;29041;42.266;23.110;2024-01-15T12:02:15;94718.19;;;3.85;69.51
43450;BME280;29041;42.266;23.110;2024-01-15T12:05:02;94721.53;;;4.31;67.30
43450;BME280;29041;42.266;23.110;2024-01-15T12:07:50;94699.00;;;3.88;68.95
43450;BME280;29041;42.266;23.110;2024-01-15T12:10:42;94694.81;;;3.96;69.08
43450;BME280;29041;42.266;23.110;2024-01-15T12:13:31;94698.19;;;3.79;69.97
43450;BME280;29041;42.266;23.110;2024-01-15T12:16:18;94677.75;;;4.28;69.71
43450;BME280;29041;42.266;23.110;2024-01-15T12:19:06;94689.72;;;4.57;66.40
43450;BME280;29041;42.266;23.110;2024-01-15T12:21:54;94704.00;;;4.21;67.66
43450;BME280;29041;42.266;23.110;2024-01-15T12:24:41;94671.97;;;4.26;67.65
43450;BME280;29041;42.266;23.110;2024-01-15T12:27:28;94674.63;;;4.26;67.09
43450;BME280;29041;42.266;23.110;2024-01-15T12:30:17;94680.34;;;4.60;66.62
43450;BME280;29041;42.266;23.110;2024-01-15T12:33:05;94665.38;;;4.99;65.40
43450;BME280;29041;42.266;23.110;2024-01-15T12:35:53;94661.78;;;5.04;65.51
43450;BME280;29041;42.266;23.110;2024-01-15T12:38:40;94643.00;;;4.65;67.36
43450;BME280;29041;42.266;23.110;2024-01-15T12:41:27;94648.53;;;4.37;68.35
43450;BME280;29041;42.266;23.110;2024-01-15T12:44:14;94653.47;;;5.32;65.24
43450;BME280;29041;42.266;23.110;2024-01-15T12:47:03;94661.16;;;5.16;66.21
43450;BME280;29041;42.266;23.110;2024-01-15T12:49:51;94648.44;;;5.21;65.64
43450;BME280;29041;42.266;23.110;2024-01-15T12:52:41;94646.91;;;4.85;66.40
43450;BME280;29041;42.266;23.110;2024-01-15T12:55:28;94626.88;;;4.79;65.43
43450;BME280;29041;42.266;23.110;2024-01-15T12:58:15;94643.72;;;4.48;65.67
43450;BME280;29041;42.266;23.110;2024-01-15T13:01:02;94655.31;;;4.61;65.67
43450;BME280;29041;42.266;23.110;2024-01-15T13:03:50;94642.84;;;4.70;66.37
43450;BME280;29041;42.266;23.110;2024-01-15T13:06:38;94648.25;;;4.39;67.19
43450;BME280;29041;42.266;23.110;2024-01-15T13:09:25;94648.44;;;4.60;67.10
43450;BME280;29041;42.266;23.110;2024-01-15T13:12:12;94631.22;;;4.49;66.80
43450;BME280;29041;42.266;23.110;2024-01-15T13:14:59;94645.34;;;5.02;65.78
43450;BME280;29041;42.266;23.110;2024-01-15T13:17:49;94631.69;;;4.51;66.74
43450;BME280;29041;42.266;23.110;2024-01-15T13:20:42;94642.06;;;4.87;64.88
43450;BME280;29041;42.266;23.110;2024-01-15T13:23:31;94643.63;;;5.06;64.87
43450;BME280;29041;42.266;23.110;2024-01-15T13:26:19;94634.84;;;4.62;65.15
43450;BME280;29041;42.266;23.110;2024-01-15T13:29:06;94628.75;;;4.70;65.83
43450;BME280;29041;42.266;23.110;2024-01-15T13:31:53;94629.81;;;4.60;66.12
43450;BME280;29041;42.266;23.110;2024-01-15T13:34:41;94622.19;;;4.76;65.93
43450;BME280;29041;42.266;23.110;2024-01-15T13:37:29;94620.00;;;4.60;65.75
43450;BME280;29041;42.266;23.110;2024-01-15T13:40:16;94590.72;;;4.52;66.36
43450;BME280;29041;42.266;23.110;2024-01-15T13:43:05;94606.22;;;4.58;67.99
43450;BME280;29041;42.266;23.110;2024-01-15T13:45:53;94580.88;;;4.87;67.15
43450;BME280;29041;42.266;23.110;2024-01-15T13:48:41;94599.16;;;5.15;66.85
43450;BME280;29041;42.266;23.110;2024-01-15T13:51:38;94582.47;;;4.88;65.98
43450;BME280;29041;42.266;23.110;2024-01-15T13:54:27;94584.63;;;4.86;66.25
43450;BME280;29041;42.266;23.110;2024-01-15T13:57:14;94587.94;;;4.74;66.77
43450;BME280;29041;42.266;23.110;2024-01-15T14:00:02;94581.34;;;4.98;66.13
43450;BME280;29041;42.266;23.110;2024-01-15T14:02:55;94584.16;;;5.19;65.55
43450;BME280;29041;42.266;23.110;2024-01-15T14:05:43;94582.00;;;4.95;66.61
43450;BME280;29041;42.266;23.110;2024-01-15T14:08:30;94586.97;;;4.88;67.29
43450;BME280;29041;42.266;23.110;2024-01-15T14:11:18;94585.72;;;5.03;66.78
43450;BME280;29041;42.266;23.110;2024-01-15T14:14:05;94595.09;;;5.18;66.12
43450;BME280;29041;42.266;23.110;2024-01-15T14:16:53;94619.53;;;4.76;68.46
43450;BME280;29041;42.266;23.110;2024-01-15T14:19:40;94589.31;;;5.07;66.80
43450;BME280;29041;42.266;23.110;2024-01-15T14:22:28;94596.81;;;5.14;66.92
43450;BME280;29041;42.266;23.110;2024-01-15T14:25:16;94589.00;;;5.17;67.07
43450;BME280;29041;42.266;23.110;2024-01-15T14:28:05;94595.28;;;5.04;67.68
43450;BME280;29041;42.266;23.110;2024-01-15T14:30:52;94593.25;;;4.74;69.00
43450;BME280;29041;42.266;23.110;2024-01-15T14:33:39;94607.50;;;4.79;69.58
43450;BME280;29041;42.266;23.110;2024-01-15T14:36:26;94598.56;;;5.01;68.75